sensor_id;sensor_type;location;lat;lon;timestamp;pressure;altitude;pressure_sealevel;temperature;humidity
54262;BME280;40174;52.364;6.452;2023-05-09T00:00:02;101575.84;;;15.71;nan
54262;BME280;40174;52.364;6.452;2023-05-09T00:02:30;101578.38;;;15.72;nan
54262;BME280;40174;52.364;6.452;2023-05-09T00:04:58;101579.47;;;15.70;nan
54262;BME280;40174;52.364;6.452;2023-05-09T00:07:27;101572.59;;;15.67;nan
54262;BME280;40174;52.364;6.452;2023-05-09T00:09:55;101566.69;;;15.64;nan
54262;BME280;40174;52.364;6.452;2023-05-09T00:12:22;101562.31;;;15.63;nan
54262;BME280;40174;52.364;6.452;2023-05-09T00:14:49;101559.66;;;15.63;nan
54262;BME280;40174;52.364;6.452;2023-05-09T00:17:18;101565.41;;;15.58;nan
54262;BME280;40174;52.364;6.452;2023-05-09T00:19:47;101553.38;;;15.54;nan
54262;BME280;40174;52.364;6.452;2023-05-09T00:22:14;101557.53;;;15.47;nan
54262;BME280;40174;52.364;6.452;2023-05-09T00:24:41;101555.59;;;15.49;nan
54262;BME280;40174;52.364;6.452;2023-05-09T00:27:09;101555.16;;;15.53;nan
54262;BME280;40174;52.364;6.452;2023-05-09T00:29:36;101552.91;;;15.49;nan
54262;BME280;40174;52.364;6.452;2023-05-09T00:32:03;101544.81;;;15.50;nan
54262;BME280;40174;52.364;6.452;2023-05-09T00:34:30;101547.88;;;15.55;nan
54262;BME280;40174;52.364;6.452;2023-05-09T00:36:57;101536.81;;;15.50;nan
54262;BME280;40174;52.364;6.452;2023-05-09T00:39:23;101542.56;;;15.46;nan
54262;BME280;40174;52.364;6.452;2023-05-09T00:41:50;101528.41;;;15.45;nan
54262;BME280;40174;52.364;6.452;2023-05-09T00:44:18;101529.66;;;15.41;nan
54262;BME280;40174;52.364;6.452;2023-05-09T00:46:45;101525.56;;;15.37;nan
54262;BME280;40174;52.364;6.452;2023-05-09T00:49:12;101514.34;;;15.33;nan
54262;BME280;40174;52.364;6.452;2023-05-09T00:51:38;101495.97;;;15.30;nan
54262;BME280;40174;52.364;6.452;2023-05-09T00:54:06;101494.03;;;15.32;nan
54262;BME280;40174;52.364;6.452;2023-05-09T00:56:33;101484.50;;;15.39;nan
54262;BME280;40174;52.364;6.452;2023-05-09T00:59:00;101492.34;;;15.41;nan
54262;BME280;40174;52.364;6.452;2023-05-09T01:01:27;101491.94;;;15.46;nan
54262;BME280;40174;52.364;6.452;2023-05-09T01:03:55;101486.31;;;15.39;nan
54262;BME280;40174;52.364;6.452;2023-05-09T01:06:29;101483.09;;;15.35;nan
54262;BME280;40174;52.364;6.452;2023-05-09T01:09:02;101480.72;;;15.32;nan
54262;BME280;40174;52.364;6.452;2023-05-09T01:11:31;101481.00;;;15.29;nan
54262;BME280;40174;52.364;6.452;2023-05-09T01:14:07;101469.06;;;15.33;nan
54262;BME280;40174;52.364;6.452;2023-05-09T01:16:43;101469.06;;;15.33;nan
54262;BME280;40174;52.364;6.452;2023-05-09T01:19:26;101476.91;;;15.25;nan
54262;BME280;40174;52.364;6.452;2023-05-09T01:22:03;101471.31;;;15.28;nan
54262;BME280;40174;52.364;6.452;2023-05-09T01:24:43;101467.09;;;15.26;nan
54262;BME280;40174;52.364;6.452;2023-05-09T01:27:36;101454.91;;;15.23;nan
54262;BME280;40174;52.364;6.452;2023-05-09T01:30:10;101450.41;;;15.24;nan
54262;BME280;40174;52.364;6.452;2023-05-09T01:32:38;101451.81;;;15.18;nan
54262;BME280;40174;52.364;6.452;2023-05-09T01:35:07;101458.94;;;15.17;nan
54262;BME280;40174;52.364;6.452;2023-05-09T01:37:41;101454.34;;;15.20;nan
54262;BME280;40174;52.364;6.452;2023-05-09T01:40:12;101450.41;;;15.14;nan
54262;BME280;40174;52.364;6.452;2023-05-09T01:42:42;101452.91;;;15.15;nan
54262;BME280;40174;52.364;6.452;2023-05-09T01:45:12;101453.78;;;15.16;nan
54262;BME280;40174;52.364;6.452;2023-05-09T01:47:40;101443.56;;;15.11;nan
54262;BME280;40174;52.364;6.452;2023-05-09T01:50:08;101453.91;;;15.14;nan
54262;BME280;40174;52.364;6.452;2023-05-09T01:52:37;101443.69;;;15.20;nan
54262;BME280;40174;52.364;6.452;2023-05-09T01:55:06;101453.50;;;15.19;nan
54262;BME280;40174;52.364;6.452;2023-05-09T01:57:34;101458.41;;;15.24;nan
54262;BME280;40174;52.364;6.452;2023-05-09T02:00:02;101453.22;;;15.12;nan
54262;BME280;40174;52.364;6.452;2023-05-09T02:02:40;101453.22;;;15.12;nan
54262;BME280;40174;52.364;6.452;2023-05-09T02:05:09;101449.59;;;15.13;nan
54262;BME280;40174;52.364;6.452;2023-05-09T02:07:36;101447.75;;;15.14;nan
54262;BME280;40174;52.364;6.452;2023-05-09T02:10:06;101439.19;;;15.10;nan
54262;BME280;40174;52.364;6.452;2023-05-09T02:12:36;101441.97;;;15.09;nan
54262;BME280;40174;52.364;6.452;2023-05-09T02:15:03;101442.09;;;14.97;nan
54262;BME280;40174;52.364;6.452;2023-05-09T02:17:30;101441.72;;;15.02;nan
54262;BME280;40174;52.364;6.452;2023-05-09T02:19:58;101439.88;;;15.03;nan
54262;BME280;40174;52.364;6.452;2023-05-09T02:22:25;101431.91;;;15.03;nan
54262;BME280;40174;52.364;6.452;2023-05-09T02:24:52;101426.84;;;15.00;nan
54262;BME280;40174;52.364;6.452;2023-05-09T02:27:19;101425.88;;;15.01;nan
54262;BME280;40174;52.364;6.452;2023-05-09T02:29:47;101430.50;;;14.99;nan
54262;BME280;40174;52.364;6.452;2023-05-09T02:32:21;101419.72;;;15.00;nan
54262;BME280;40174;52.364;6.452;2023-05-09T02:34:51;101424.19;;;15.00;nan
54262;BME280;40174;52.364;6.452;2023-05-09T02:37:20;101419.13;;;15.06;nan
54262;BME280;40174;52.364;6.452;2023-05-09T02:39:47;101423.91;;;15.03;nan
54262;BME280;40174;52.364;6.452;2023-05-09T02:42:22;101423.22;;;15.01;nan
54262;BME280;40174;52.364;6.452;2023-05-09T02:44:49;101422.50;;;14.99;nan
54262;BME280;40174;52.364;6.452;2023-05-09T02:47:16;101412.81;;;14.97;nan
54262;BME280;40174;52.364;6.452;2023-05-09T02:49:42;101429.50;;;15.00;nan
54262;BME280;40174;52.364;6.452;2023-05-09T02:52:10;101421.38;;;15.01;nan
54262;BME280;40174;52.364;6.452;2023-05-09T02:54:38;101420.00;;;15.07;nan
54262;BME280;40174;52.364;6.452;2023-05-09T02:57:05;101409.63;;;15.04;nan
54262;BME280;40174;52.364;6.452;2023-05-09T02:59:32;101422.50;;;14.99;nan
54262;BME280;40174;52.364;6.452;2023-05-09T03:02:00;101412.69;;;14.99;nan
54262;BME280;40174;52.364;6.452;2023-05-09T03:04:28;101412.97;;;14.96;nan
54262;BME280;40174;52.364;6.452;2023-05-09T03:06:55;101406.25;;;15.02;nan
54262;BME280;40174;52.364;6.452;2023-05-09T03:09:24;101405.69;;;14.98;nan
54262;BME280;40174;52.364;6.452;2023-05-09T03:11:53;101402.19;;;14.97;nan
54262;BME280;40174;52.364;6.452;2023-05-09T03:14:20;101396.84;;;14.97;nan
54262;BME280;40174;52.364;6.452;2023-05-09T03:16:47;101396.84;;;14.97;nan
54262;BME280;40174;52.364;6.452;2023-05-09T03:19:22;101389.16;;;14.94;nan
54262;BME280;40174;52.364;6.452;2023-05-09T03:21:48;101377.38;;;14.97;nan
54262;BME280;40174;52.364;6.452;2023-05-09T03:24:15;101374.88;;;14.95;nan
54262;BME280;40174;52.364;6.452;2023-05-09T03:26:42;101373.06;;;14.96;nan
54262;BME280;40174;52.364;6.452;2023-05-09T03:29:10;101372.34;;;14.94;nan
54262;BME280;40174;52.364;6.452;2023-05-09T03:31:38;101362.00;;;15.01;nan
54262;BME280;40174;52.364;6.452;2023-05-09T03:34:04;101358.63;;;14.99;nan
54262;BME280;40174;52.364;6.452;2023-05-09T03:36:31;101360.00;;;14.93;nan
54262;BME280;40174;52.364;6.452;2023-05-09T03:38:59;101356.81;;;14.89;nan
54262;BME280;40174;52.364;6.452;2023-05-09T03:41:26;101357.09;;;14.96;nan
54262;BME280;40174;52.364;6.452;2023-05-09T03:43:52;101357.22;;;14.94;nan
54262;BME280;40174;52.364;6.452;2023-05-09T03:46:20;101364.06;;;14.97;nan
54262;BME280;40174;52.364;6.452;2023-05-09T03:48:48;101370.09;;;14.99;nan
54262;BME280;40174;52.364;6.452;2023-05-09T03:51:15;101357.34;;;14.93;nan
54262;BME280;40174;52.364;6.452;2023-05-09T03:53:45;101361.56;;;14.95;nan
54262;BME280;40174;52.364;6.452;2023-05-09T03:56:13;101359.28;;;14.91;nan
54262;BME280;40174;52.364;6.452;2023-05-09T03:58:46;101354.84;;;14.91;nan
54262;BME280;40174;52.364;6.452;2023-05-09T04:01:13;101348.53;;;14.92;nan
54262;BME280;40174;52.364;6.452;2023-05-09T04:03:41;101343.75;;;14.86;nan
54262;BME280;40174;52.364;6.452;2023-05-09T04:06:10;101347.28;;;14.87;nan
54262;BME280;40174;52.364;6.452;2023-05-09T04:08:41;101350.34;;;14.82;nan
54262;BME280;40174;52.364;6.452;2023-05-09T04:11:08;101344.03;;;14.83;nan
54262;BME280;40174;52.364;6.452;2023-05-09T04:13:36;101343.06;;;14.84;nan
54262;BME280;40174;52.364;6.452;2023-05-09T04:16:10;101343.06;;;14.84;nan
54262;BME280;40174;52.364;6.452;2023-05-09T04:18:37;101343.75;;;14.86;nan
54262;BME280;40174;52.364;6.452;2023-05-09T04:21:07;101341.25;;;14.85;nan
54262;BME280;40174;52.364;6.452;2023-05-09T04:23:34;101341.78;;;14.88;nan
54262;BME280;40174;52.364;6.452;2023-05-09T04:26:01;101340.13;;;14.87;nan
54262;BME280;40174;52.364;6.452;2023-05-09T04:28:29;101345.44;;;14.87;nan
54262;BME280;40174;52.364;6.452;2023-05-09T04:30:56;101337.06;;;14.82;nan
54262;BME280;40174;52.364;6.452;2023-05-09T04:33:22;101341.78;;;14.88;nan
54262;BME280;40174;52.364;6.452;2023-05-09T04:35:50;101335.94;;;14.85;nan
54262;BME280;40174;52.364;6.452;2023-05-09T04:38:19;101343.06;;;14.84;nan
54262;BME280;40174;52.364;6.452;2023-05-09T04:40:45;101344.31;;;14.90;nan
54262;BME280;40174;52.364;6.452;2023-05-09T04:43:12;101343.75;;;14.86;nan
54262;BME280;40174;52.364;6.452;2023-05-09T04:45:39;101334.38;;;14.82;nan
54262;BME280;40174;52.364;6.452;2023-05-09T04:48:05;101336.88;;;14.84;nan
54262;BME280;40174;52.364;6.452;2023-05-09T04:50:32;101323.31;;;14.87;nan
54262;BME280;40174;52.364;6.452;2023-05-09T04:52:59;101332.00;;;14.89;nan
54262;BME280;40174;52.364;6.452;2023-05-09T04:55:28;101326.09;;;14.95;nan
54262;BME280;40174;52.364;6.452;2023-05-09T04:57:55;101323.59;;;14.93;nan
54262;BME280;40174;52.364;6.452;2023-05-09T05:00:22;101321.66;;;14.95;nan
54262;BME280;40174;52.364;6.452;2023-05-09T05:02:49;101316.72;;;14.91;nan
54262;BME280;40174;52.364;6.452;2023-05-09T05:05:16;101312.50;;;14.88;nan
54262;BME280;40174;52.364;6.452;2023-05-09T05:07:42;101310.13;;;14.95;nan
54262;BME280;40174;52.364;6.452;2023-05-09T05:10:13;101314.75;;;14.93;nan
54262;BME280;40174;52.364;6.452;2023-05-09T05:12:45;101315.03;;;15.00;nan
54262;BME280;40174;52.364;6.452;2023-05-09T05:15:12;101315.19;;;14.98;nan
54262;BME280;40174;52.364;6.452;2023-05-09T05:17:42;101314.91;;;15.01;nan
54262;BME280;40174;52.364;6.452;2023-05-09T05:20:09;101303.00;;;15.05;nan
54262;BME280;40174;52.364;6.452;2023-05-09T05:22:41;101307.50;;;15.05;nan
54262;BME280;40174;52.364;6.452;2023-05-09T05:25:08;101306.94;;;15.01;nan
54262;BME280;40174;52.364;6.452;2023-05-09T05:27:36;101308.63;;;15.02;nan
54262;BME280;40174;52.364;6.452;2023-05-09T05:30:05;101306.38;;;15.07;nan
54262;BME280;40174;52.364;6.452;2023-05-09T05:32:32;101297.25;;;15.10;nan
54262;BME280;40174;52.364;6.452;2023-05-09T05:34:59;101292.06;;;15.08;nan
54262;BME280;40174;52.364;6.452;2023-05-09T05:37:27;101288.56;;;15.08;nan
54262;BME280;40174;52.364;6.452;2023-05-09T05:39:54;101286.03;;;15.06;nan
54262;BME280;40174;52.364;6.452;2023-05-09T05:42:23;101289.97;;;15.12;nan
54262;BME280;40174;52.364;6.452;2023-05-09T05:44:49;101291.81;;;15.11;nan
54262;BME280;40174;52.364;6.452;2023-05-09T05:47:17;101286.91;;;15.07;nan
54262;BME280;40174;52.364;6.452;2023-05-09T05:49:44;101289.28;;;15.10;nan
54262;BME280;40174;52.364;6.452;2023-05-09T05:52:11;101287.31;;;15.12;nan
54262;BME280;40174;52.364;6.452;2023-05-09T05:54:37;101282.53;;;15.06;nan
54262;BME280;40174;52.364;6.452;2023-05-09T05:57:04;101283.94;;;15.10;nan
54262;BME280;40174;52.364;6.452;2023-05-09T05:59:32;101277.63;;;15.11;nan
54262;BME280;40174;52.364;6.452;2023-05-09T06:01:59;101271.75;;;15.17;nan
54262;BME280;40174;52.364;6.452;2023-05-09T06:04:31;101266.41;;;15.17;nan
54262;BME280;40174;52.364;6.452;2023-05-09T06:06:58;101273.13;;;15.21;nan
54262;BME280;40174;52.364;6.452;2023-05-09T06:09:25;101272.88;;;15.14;nan
54262;BME280;40174;52.364;6.452;2023-05-09T06:11:52;101270.47;;;15.21;nan
54262;BME280;40174;52.364;6.452;2023-05-09T06:14:19;101270.06;;;15.26;nan
54262;BME280;40174;52.364;6.452;2023-05-09T06:16:45;101259.25;;;15.17;nan
54262;BME280;40174;52.364;6.452;2023-05-09T06:19:13;101255.50;;;15.20;nan
54262;BME280;40174;52.364;6.452;2023-05-09T06:21:41;101259.25;;;15.17;nan
54262;BME280;40174;52.364;6.452;2023-05-09T06:24:07;101255.50;;;15.20;nan
54262;BME280;40174;52.364;6.452;2023-05-09T06:26:34;101255.91;;;15.25;nan
54262;BME280;40174;52.364;6.452;2023-05-09T06:29:01;101261.94;;;15.27;nan
54262;BME280;40174;52.364;6.452;2023-05-09T06:31:27;101250.28;;;15.28;nan
54262;BME280;40174;52.364;6.452;2023-05-09T06:33:54;101244.94;;;15.28;nan
54262;BME280;40174;52.364;6.452;2023-05-09T06:36:21;101242.16;;;15.30;nan
54262;BME280;40174;52.364;6.452;2023-05-09T06:38:49;101242.44;;;15.27;nan
54262;BME280;40174;52.364;6.452;2023-05-09T06:41:15;101234.44;;;15.27;nan
54262;BME280;40174;52.364;6.452;2023-05-09T06:43:42;101230.94;;;15.36;nan
54262;BME280;40174;52.364;6.452;2023-05-09T06:46:08;101225.88;;;15.43;nan
54262;BME280;40174;52.364;6.452;2023-05-09T06:48:35;101222.09;;;15.35;nan
54262;BME280;40174;52.364;6.452;2023-05-09T06:51:01;101210.03;;;15.41;nan
54262;BME280;40174;52.364;6.452;2023-05-09T06:53:28;101209.59;;;15.46;nan
54262;BME280;40174;52.364;6.452;2023-05-09T06:55:56;101219.53;;;15.44;nan
54262;BME280;40174;52.364;6.452;2023-05-09T06:58:23;101210.41;;;15.46;nan
54262;BME280;40174;52.364;6.452;2023-05-09T07:00:49;101210.03;;;15.41;nan
54262;BME280;40174;52.364;6.452;2023-05-09T07:03:16;101211.69;;;15.42;nan
54262;BME280;40174;52.364;6.452;2023-05-09T07:05:43;101198.88;;;15.55;nan
54262;BME280;40174;52.364;6.452;2023-05-09T07:08:09;101203.69;;;15.52;nan
54262;BME280;40174;52.364;6.452;2023-05-09T07:10:36;101198.50;;;15.50;nan
54262;BME280;40174;52.364;6.452;2023-05-09T07:13:05;101197.34;;;15.53;nan
54262;BME280;40174;52.364;6.452;2023-05-09T07:15:31;101190.81;;;15.47;nan
54262;BME280;40174;52.364;6.452;2023-05-09T07:17:58;101185.97;;;15.61;nan
54262;BME280;40174;52.364;6.452;2023-05-09T07:20:24;101193.72;;;15.54;nan
54262;BME280;40174;52.364;6.452;2023-05-09T07:22:51;101194.69;;;15.53;nan
54262;BME280;40174;52.364;6.452;2023-05-09T07:25:18;101193.13;;;15.60;nan
54262;BME280;40174;52.364;6.452;2023-05-09T07:27:44;101179.66;;;15.62;nan
54262;BME280;40174;52.364;6.452;2023-05-09T07:30:13;101187.94;;;15.58;nan
54262;BME280;40174;52.364;6.452;2023-05-09T07:32:39;101176.44;;;15.58;nan
54262;BME280;40174;52.364;6.452;2023-05-09T07:35:06;101184.16;;;15.61;nan
54262;BME280;40174;52.364;6.452;2023-05-09T07:37:33;101179.09;;;15.58;nan
54262;BME280;40174;52.364;6.452;2023-05-09T07:40:00;101177.81;;;15.62;nan
54262;BME280;40174;52.364;6.452;2023-05-09T07:42:27;101171.81;;;15.60;nan
54262;BME280;40174;52.364;6.452;2023-05-09T07:44:54;101169.69;;;15.64;nan
54262;BME280;40174;52.364;6.452;2023-05-09T07:47:22;101164.22;;;15.65;nan
54262;BME280;40174;52.364;6.452;2023-05-09T07:49:49;101161.66;;;15.73;nan
54262;BME280;40174;52.364;6.452;2023-05-09T07:52:16;101161.63;;;15.83;nan
54262;BME280;40174;52.364;6.452;2023-05-09T07:54:43;101151.59;;;15.95;nan
54262;BME280;40174;52.364;6.452;2023-05-09T07:57:09;101148.72;;;16.06;nan
54262;BME280;40174;52.364;6.452;2023-05-09T07:59:36;101147.47;;;16.18;nan
54262;BME280;40174;52.364;6.452;2023-05-09T08:02:03;101147.66;;;16.35;nan
54262;BME280;40174;52.364;6.452;2023-05-09T08:04:30;101145.72;;;16.45;nan
54262;BME280;40174;52.364;6.452;2023-05-09T08:06:57;101142.22;;;16.45;nan
54262;BME280;40174;52.364;6.452;2023-05-09T08:09:23;101143.81;;;16.55;nan
54262;BME280;40174;52.364;6.452;2023-05-09T08:11:51;101139.47;;;16.54;nan
54262;BME280;40174;52.364;6.452;2023-05-09T08:14:17;101144.34;;;16.41;nan
54262;BME280;40174;52.364;6.452;2023-05-09T08:16:44;101127.06;;;16.45;nan
54262;BME280;40174;52.364;6.452;2023-05-09T08:19:10;101128.78;;;16.54;nan
54262;BME280;40174;52.364;6.452;2023-05-09T08:21:38;101122.34;;;16.57;nan
54262;BME280;40174;52.364;6.452;2023-05-09T08:24:05;101123.31;;;16.56;nan
54262;BME280;40174;52.364;6.452;2023-05-09T08:26:32;101116.78;;;16.50;nan
54262;BME280;40174;52.364;6.452;2023-05-09T08:28:59;101124.34;;;16.63;nan
54262;BME280;40174;52.364;6.452;2023-05-09T08:31:25;101110.72;;;16.66;nan
54262;BME280;40174;52.364;6.452;2023-05-09T08:33:52;101102.03;;;16.64;nan
54262;BME280;40174;52.364;6.452;2023-05-09T08:36:19;101106.72;;;16.70;nan
54262;BME280;40174;52.364;6.452;2023-05-09T08:38:47;101096.00;;;16.80;nan
54262;BME280;40174;52.364;6.452;2023-05-09T08:41:14;101097.84;;;16.88;nan
54262;BME280;40174;52.364;6.452;2023-05-09T08:43:41;101094.09;;;16.98;nan
54262;BME280;40174;52.364;6.452;2023-05-09T08:46:09;101090.88;;;16.95;nan
54262;BME280;40174;52.364;6.452;2023-05-09T08:48:37;101094.41;;;16.95;nan
54262;BME280;40174;52.364;6.452;2023-05-09T08:51:06;101092.63;;;17.04;nan
54262;BME280;40174;52.364;6.452;2023-05-09T08:53:33;101092.50;;;17.14;nan
54262;BME280;40174;52.364;6.452;2023-05-09T08:56:01;101088.03;;;17.22;nan
54262;BME280;40174;52.364;6.452;2023-05-09T08:58:29;101081.34;;;17.18;nan
54262;BME280;40174;52.364;6.452;2023-05-09T09:00:57;101083.19;;;17.18;nan
54262;BME280;40174;52.364;6.452;2023-05-09T09:03:24;101083.69;;;17.21;nan
54262;BME280;40174;52.364;6.452;2023-05-09T09:05:52;101084.75;;;17.29;nan
54262;BME280;40174;52.364;6.452;2023-05-09T09:08:21;101075.56;;;17.31;nan
54262;BME280;40174;52.364;6.452;2023-05-09T09:10:47;101083.75;;;17.38;nan
54262;BME280;40174;52.364;6.452;2023-05-09T09:13:16;101069.53;;;17.29;nan
54262;BME280;40174;52.364;6.452;2023-05-09T09:15:44;101072.88;;;17.31;nan
54262;BME280;40174;52.364;6.452;2023-05-09T09:18:15;101067.03;;;17.28;nan
54262;BME280;40174;52.364;6.452;2023-05-09T09:20:47;101064.56;;;17.42;nan
54262;BME280;40174;52.364;6.452;2023-05-09T09:23:17;101056.91;;;17.48;nan
54262;BME280;40174;52.364;6.452;2023-05-09T09:25:44;101059.91;;;17.53;nan
54262;BME280;40174;52.364;6.452;2023-05-09T09:28:11;101064.47;;;17.60;nan
54262;BME280;40174;52.364;6.452;2023-05-09T09:30:44;101056.94;;;17.64;nan
54262;BME280;40174;52.364;6.452;2023-05-09T09:33:18;101051.09;;;17.60;nan
54262;BME280;40174;52.364;6.452;2023-05-09T09:35:47;101055.28;;;17.71;nan
54262;BME280;40174;52.364;6.452;2023-05-09T09:38:13;101054.00;;;17.83;nan
54262;BME280;40174;52.364;6.452;2023-05-09T09:40:51;101040.97;;;17.97;nan
54262;BME280;40174;52.364;6.452;2023-05-09T09:43:18;101035.13;;;18.01;nan
54262;BME280;40174;52.364;6.452;2023-05-09T09:45:49;101035.31;;;18.16;nan
54262;BME280;40174;52.364;6.452;2023-05-09T09:48:15;101035.63;;;18.30;nan
54262;BME280;40174;52.364;6.452;2023-05-09T09:50:42;101035.97;;;18.35;nan
54262;BME280;40174;52.364;6.452;2023-05-09T09:53:09;101024.09;;;18.21;nan
54262;BME280;40174;52.364;6.452;2023-05-09T09:55:35;101027.59;;;18.21;nan
54262;BME280;40174;52.364;6.452;2023-05-09T09:58:02;101023.25;;;18.20;nan
54262;BME280;40174;52.364;6.452;2023-05-09T10:00:41;101028.44;;;18.30;nan
54262;BME280;40174;52.364;6.452;2023-05-09T10:03:13;101025.41;;;18.33;nan
54262;BME280;40174;52.364;6.452;2023-05-09T10:05:40;101018.22;;;18.34;nan
54262;BME280;40174;52.364;6.452;2023-05-09T10:08:07;101010.69;;;18.37;nan
54262;BME280;40174;52.364;6.452;2023-05-09T10:10:35;101019.88;;;18.43;nan
54262;BME280;40174;52.364;6.452;2023-05-09T10:13:03;101011.88;;;18.35;nan
54262;BME280;40174;52.364;6.452;2023-05-09T10:15:34;101018.22;;;18.42;nan
54262;BME280;40174;52.364;6.452;2023-05-09T10:18:01;101012.69;;;18.43;nan
54262;BME280;40174;52.364;6.452;2023-05-09T10:20:30;101013.38;;;18.45;nan
54262;BME280;40174;52.364;6.452;2023-05-09T10:23:00;101011.47;;;18.54;nan
54262;BME280;40174;52.364;6.452;2023-05-09T10:25:32;101007.81;;;18.55;nan
54262;BME280;40174;52.364;6.452;2023-05-09T10:28:08;101012.13;;;18.64;nan
54262;BME280;40174;52.364;6.452;2023-05-09T10:30:41;101005.59;;;18.67;nan
54262;BME280;40174;52.364;6.452;2023-05-09T10:33:14;100997.06;;;18.72;nan
54262;BME280;40174;52.364;6.452;2023-05-09T10:35:45;100991.03;;;18.78;nan
54262;BME280;40174;52.364;6.452;2023-05-09T10:38:12;100992.69;;;18.79;nan
54262;BME280;40174;52.364;6.452;2023-05-09T10:40:39;100982.84;;;18.79;nan
54262;BME280;40174;52.364;6.452;2023-05-09T10:43:06;100981.66;;;18.74;nan
54262;BME280;40174;52.364;6.452;2023-05-09T10:45:33;100984.16;;;18.75;nan
54262;BME280;40174;52.364;6.452;2023-05-09T10:48:00;100981.69;;;18.65;nan
54262;BME280;40174;52.364;6.452;2023-05-09T10:50:29;100976.66;;;18.70;nan
54262;BME280;40174;52.364;6.452;2023-05-09T10:53:09;100971.69;;;18.59;nan
54262;BME280;40174;52.364;6.452;2023-05-09T10:55:51;100976.00;;;18.68;nan
54262;BME280;40174;52.364;6.452;2023-05-09T10:58:28;100965.13;;;18.70;nan
54262;BME280;40174;52.364;6.452;2023-05-09T11:00:59;100960.31;;;18.57;nan
54262;BME280;40174;52.364;6.452;2023-05-09T11:03:27;100951.59;;;18.63;nan
54262;BME280;40174;52.364;6.452;2023-05-09T11:05:55;100951.22;;;18.66;nan
54262;BME280;40174;52.364;6.452;2023-05-09T11:08:27;100940.53;;;18.66;nan
54262;BME280;40174;52.364;6.452;2023-05-09T11:10:55;100942.31;;;18.74;nan
54262;BME280;40174;52.364;6.452;2023-05-09T11:13:23;100938.50;;;18.68;nan
54262;BME280;40174;52.364;6.452;2023-05-09T11:16:10;100945.34;;;18.71;nan
54262;BME280;40174;52.364;6.452;2023-05-09T11:18:49;100931.34;;;18.61;nan
54262;BME280;40174;52.364;6.452;2023-05-09T11:21:16;100933.03;;;18.62;nan
54262;BME280;40174;52.364;6.452;2023-05-09T11:23:47;100923.50;;;18.59;nan
54262;BME280;40174;52.364;6.452;2023-05-09T11:26:14;100926.56;;;18.48;nan
54262;BME280;40174;52.364;6.452;2023-05-09T11:28:41;100928.25;;;18.41;nan
54262;BME280;40174;52.364;6.452;2023-05-09T11:31:17;100934.13;;;18.36;nan
54262;BME280;40174;52.364;6.452;2023-05-09T11:33:47;100929.19;;;18.00;nan
54262;BME280;40174;52.364;6.452;2023-05-09T11:36:19;100923.31;;;17.80;nan
54262;BME280;40174;52.364;6.452;2023-05-09T11:39:02;100923.63;;;17.77;nan
54262;BME280;40174;52.364;6.452;2023-05-09T11:41:29;100927.47;;;17.66;nan
54262;BME280;40174;52.364;6.452;2023-05-09T11:43:56;100917.13;;;17.63;nan
54262;BME280;40174;52.364;6.452;2023-05-09T11:46:24;100916.28;;;17.55;nan
54262;BME280;40174;52.364;6.452;2023-05-09T11:48:50;100913.94;;;17.60;nan
54262;BME280;40174;52.364;6.452;2023-05-09T11:51:17;100907.97;;;17.58;nan
54262;BME280;40174;52.364;6.452;2023-05-09T11:53:44;100916.94;;;17.73;nan
54262;BME280;40174;52.364;6.452;2023-05-09T11:56:13;100909.94;;;17.64;nan
54262;BME280;40174;52.364;6.452;2023-05-09T11:58:40;100911.78;;;17.72;nan
54262;BME280;40174;52.364;6.452;2023-05-09T12:01:06;100903.94;;;17.70;nan
54262;BME280;40174;52.364;6.452;2023-05-09T12:03:33;100893.75;;;17.65;nan
54262;BME280;40174;52.364;6.452;2023-05-09T12:06:00;100896.94;;;17.69;nan
54262;BME280;40174;52.364;6.452;2023-05-09T12:08:27;100894.41;;;17.76;nan
54262;BME280;40174;52.364;6.452;2023-05-09T12:10:55;100893.09;;;17.72;nan
54262;BME280;40174;52.364;6.452;2023-05-09T12:13:34;100886.88;;;17.71;nan
54262;BME280;40174;52.364;6.452;2023-05-09T12:16:00;100885.22;;;17.78;nan
54262;BME280;40174;52.364;6.452;2023-05-09T12:18:27;100879.22;;;17.76;nan
54262;BME280;40174;52.364;6.452;2023-05-09T12:20:53;100884.03;;;17.73;nan
54262;BME280;40174;52.364;6.452;2023-05-09T12:23:20;100882.03;;;17.66;nan
54262;BME280;40174;52.364;6.452;2023-05-09T12:25:47;100883.72;;;17.67;nan
54262;BME280;40174;52.364;6.452;2023-05-09T12:28:14;100882.38;;;17.63;nan
54262;BME280;40174;52.364;6.452;2023-05-09T12:30:42;100875.53;;;17.61;nan
54262;BME280;40174;52.364;6.452;2023-05-09T12:33:10;100878.88;;;17.55;nan
54262;BME280;40174;52.364;6.452;2023-05-09T12:35:36;100876.06;;;17.56;nan
54262;BME280;40174;52.364;6.452;2023-05-09T12:38:03;100869.19;;;17.62;nan
54262;BME280;40174;52.364;6.452;2023-05-09T12:40:30;100864.34;;;17.57;nan
54262;BME280;40174;52.364;6.452;2023-05-09T12:42:57;100877.88;;;17.48;nan
54262;BME280;40174;52.364;6.452;2023-05-09T12:45:27;100863.19;;;17.52;nan
54262;BME280;40174;52.364;6.452;2023-05-09T12:47:55;100868.03;;;17.56;nan
54262;BME280;40174;52.364;6.452;2023-05-09T12:50:30;100866.84;;;17.59;nan
54262;BME280;40174;52.364;6.452;2023-05-09T12:53:00;100861.84;;;17.64;nan
54262;BME280;40174;52.364;6.452;2023-05-09T12:55:27;100860.66;;;17.66;nan
54262;BME280;40174;52.364;6.452;2023-05-09T12:57:58;100858.13;;;17.73;nan
54262;BME280;40174;52.364;6.452;2023-05-09T13:00:25;100852.31;;;17.70;nan
54262;BME280;40174;52.364;6.452;2023-05-09T13:02:51;100858.81;;;17.75;nan
54262;BME280;40174;52.364;6.452;2023-05-09T13:05:20;100857.50;;;17.88;nan
54262;BME280;40174;52.364;6.452;2023-05-09T13:07:48;100856.84;;;17.85;nan
54262;BME280;40174;52.364;6.452;2023-05-09T13:10:18;100856.00;;;17.85;nan
54262;BME280;40174;52.364;6.452;2023-05-09T13:12:46;100857.00;;;17.84;nan
54262;BME280;40174;52.364;6.452;2023-05-09T13:15:14;100856.50;;;17.80;nan